Time;durP1;ratioP1;P1;durP2;ratioP2;P2;SDS_P1;SDS_P2;PMS_P1;PMS_P2;Temp;Humidity;BMP_temperature;BMP_pressure;BME280_temperature;BME280_humidity;BME280_pressure;Samples;Min_cycle;Max_cycle;Signal;HPM_P1;HPM_P2
2019/06/12 00:02:06;;;;;;;1.61;1.51;;;;;;;20.68;52.50;99874.41;;;;-50
2019/06/12 00:05:06;;;;;;;1.65;1.55;;;;;;;20.68;52.46;99873.56;;;;-49
2019/06/12 00:08:06;;;;;;;1.65;1.55;;;;;;;20.67;52.50;99871.78;;;;-52
2019/06/12 00:11:06;;;;;;;1.59;1.49;;;;;;;20.68;52.50;99874.91;;;;-52
2019/06/12 00:14:06;;;;;;;1.89;1.56;;;;;;;20.68;52.48;99876.19;;;;-51
2019/06/12 00:17:06;;;;;;;1.50;1.40;;;;;;;20.67;52.50;99879.00;;;;-58
2019/06/12 00:20:06;;;;;;;1.60;1.50;;;;;;;20.67;52.53;99874.64;;;;-58
2019/06/12 00:23:06;;;;;;;1.63;1.49;;;;;;;20.67;52.52;99870.52;;;;-57
2019/06/12 00:26:06;;;;;;;2.06;1.50;;;;;;;20.67;52.53;99867.50;;;;-58
2019/06/12 00:29:06;;;;;;;1.60;1.50;;;;;;;20.67;52.48;99869.11;;;;-57
2019/06/12 00:32:06;;;;;;;2.45;1.50;;;;;;;20.67;52.48;99872.53;;;;-57
2019/06/12 00:35:06;;;;;;;1.65;1.55;;;;;;;20.67;52.44;99873.13;;;;-57
2019/06/12 00:38:06;;;;;;;1.54;1.44;;;;;;;20.66;52.49;99876.12;;;;-52
2019/06/12 00:41:06;;;;;;;1.59;1.49;;;;;;;20.66;52.50;99870.81;;;;-52
2019/06/12 00:44:06;;;;;;;1.80;1.55;;;;;;;20.67;52.49;99866.09;;;;-52
2019/06/12 00:47:06;;;;;;;1.50;1.40;;;;;;;20.66;52.47;99859.24;;;;-52
2019/06/12 00:50:06;;;;;;;1.90;1.50;;;;;;;20.66;52.48;99861.86;;;;-49
2019/06/12 00:53:06;;;;;;;1.67;1.45;;;;;;;20.66;52.48;99866.63;;;;-49
2019/06/12 00:56:06;;;;;;;1.55;1.44;;;;;;;20.66;52.50;99862.94;;;;-49
2019/06/12 00:59:06;;;;;;;1.57;1.43;;;;;;;20.65;52.46;99862.73;;;;-57
2019/06/12 01:02:06;;;;;;;1.70;1.60;;;;;;;20.65;52.50;99856.46;;;;-57
2019/06/12 01:05:06;;;;;;;1.79;1.40;;;;;;;20.65;52.46;99852.84;;;;-57
2019/06/12 01:08:06;;;;;;;1.50;1.40;;;;;;;20.64;52.49;99851.90;;;;-58
2019/06/12 01:11:06;;;;;;;1.54;1.44;;;;;;;20.64;52.49;99852.06;;;;-57
2019/06/12 01:14:06;;;;;;;1.67;1.54;;;;;;;20.65;52.50;99851.26;;;;-57
2019/06/12 01:17:06;;;;;;;1.55;1.40;;;;;;;20.64;52.49;99846.87;;;;-49
2019/06/12 01:20:06;;;;;;;1.59;1.49;;;;;;;20.65;52.48;99845.89;;;;-49
2019/06/12 01:23:06;;;;;;;1.53;1.43;;;;;;;20.64;52.49;99847.70;;;;-49
2019/06/12 01:26:06;;;;;;;1.59;1.49;;;;;;;20.64;52.48;99850.05;;;;-49
2019/06/12 01:29:06;;;;;;;1.67;1.57;;;;;;;20.63;52.48;99847.17;;;;-49
2019/06/12 01:32:06;;;;;;;1.75;1.61;;;;;;;20.63;52.53;99847.51;;;;-50
2019/06/12 01:35:06;;;;;;;1.59;1.49;;;;;;;20.63;52.51;99850.02;;;;-49
2019/06/12 01:38:06;;;;;;;1.71;1.50;;;;;;;20.63;52.46;99843.55;;;;-49
2019/06/12 01:41:06;;;;;;;1.57;1.47;;;;;;;20.63;52.49;99837.34;;;;-49
2019/06/12 01:44:06;;;;;;;1.67;1.43;;;;;;;20.62;52.46;99824.83;;;;-50
2019/06/12 01:47:06;;;;;;;1.70;1.60;;;;;;;20.62;52.42;99816.34;;;;-52
2019/06/12 01:50:06;;;;;;;1.77;1.50;;;;;;;20.62;52.43;99814.26;;;;-52
2019/06/12 01:53:06;;;;;;;1.60;1.50;;;;;;;20.63;52.44;99809.83;;;;-52
2019/06/12 01:56:06;;;;;;;1.58;1.48;;;;;;;20.62;52.46;99803.28;;;;-52
2019/06/12 01:59:06;;;;;;;1.50;1.40;;;;;;;20.62;52.46;99797.48;;;;-52
2019/06/12 02:02:06;;;;;;;1.50;1.40;;;;;;;20.62;52.42;99797.66;;;;-51
2019/06/12 02:05:06;;;;;;;1.91;1.50;;;;;;;20.61;52.44;99790.74;;;;-52
2019/06/12 02:08:06;;;;;;;1.63;1.53;;;;;;;20.62;52.43;99786.64;;;;-52
2019/06/12 02:11:06;;;;;;;1.61;1.51;;;;;;;20.61;52.44;99782.79;;;;-52
2019/06/12 02:14:06;;;;;;;1.63;1.50;;;;;;;20.60;52.42;99780.08;;;;-49
2019/06/12 02:17:06;;;;;;;1.50;1.40;;;;;;;20.61;52.44;99768.00;;;;-49
2019/06/12 02:20:06;;;;;;;2.01;1.48;;;;;;;20.61;52.41;99767.69;;;;-49
2019/06/12 02:23:06;;;;;;;1.61;1.51;;;;;;;20.61;52.41;99773.03;;;;-51
2019/06/12 02:26:06;;;;;;;1.58;1.48;;;;;;;20.61;52.43;99764.07;;;;-52
2019/06/12 02:29:06;;;;;;;1.50;1.40;;;;;;;20.60;52.43;99763.53;;;;-52
2019/06/12 02:32:06;;;;;;;1.50;1.40;;;;;;;20.60;52.48;99761.45;;;;-52
2019/06/12 02:35:06;;;;;;;1.53;1.43;;;;;;;20.61;52.44;99771.19;;;;-53
2019/06/12 02:38:06;;;;;;;1.52;1.42;;;;;;;20.60;52.45;99759.58;;;;-51
2019/06/12 02:41:06;;;;;;;1.75;1.50;;;;;;;20.59;52.39;99763.34;;;;-52
2019/06/12 02:44:06;;;;;;;1.60;1.50;;;;;;;20.60;52.40;99758.94;;;;-52
2019/06/12 02:47:06;;;;;;;1.60;1.50;;;;;;;20.59;52.45;99761.66;;;;-52
2019/06/12 02:50:06;;;;;;;1.85;1.57;;;;;;;20.60;52.44;99755.15;;;;-52
2019/06/12 02:53:06;;;;;;;1.61;1.51;;;;;;;20.60;52.39;99753.41;;;;-52
2019/06/12 02:56:06;;;;;;;1.50;1.40;;;;;;;20.60;52.36;99753.97;;;;-51
2019/06/12 02:59:06;;;;;;;2.59;1.60;;;;;;;20.60;52.39;99752.73;;;;-52
2019/06/12 03:02:06;;;;;;;1.60;1.50;;;;;;;20.60;52.42;99762.13;;;;-52
2019/06/12 03:05:06;;;;;;;1.94;1.49;;;;;;;20.59;52.42;99752.87;;;;-52
2019/06/12 03:08:06;;;;;;;1.62;1.52;;;;;;;20.59;52.41;99735.76;;;;-52
2019/06/12 03:11:06;;;;;;;1.67;1.55;;;;;;;20.59;52.41;99731.97;;;;-52
2019/06/12 03:14:06;;;;;;;1.64;1.52;;;;;;;20.59;52.39;99728.69;;;;-51
2019/06/12 03:17:06;;;;;;;1.61;1.51;;;;;;;20.59;52.44;99725.50;;;;-52
2019/06/12 03:20:06;;;;;;;1.66;1.56;;;;;;;20.58;52.40;99722.28;;;;-52
2019/06/12 03:23:06;;;;;;;1.50;1.40;;;;;;;20.59;52.42;99725.50;;;;-52
2019/06/12 03:26:06;;;;;;;1.67;1.57;;;;;;;20.58;52.41;99721.53;;;;-52
2019/06/12 03:29:06;;;;;;;1.71;1.61;;;;;;;20.58;52.42;99710.64;;;;-51
2019/06/12 03:32:06;;;;;;;1.60;1.50;;;;;;;20.58;52.44;99709.96;;;;-57
2019/06/12 03:35:06;;;;;;;1.87;1.55;;;;;;;20.58;52.42;99708.69;;;;-57
2019/06/12 03:38:06;;;;;;;1.60;1.50;;;;;;;20.58;52.44;99711.05;;;;-58
2019/06/12 03:41:06;;;;;;;1.50;1.40;;;;;;;20.58;52.44;99704.50;;;;-58
2019/06/12 03:44:06;;;;;;;1.60;1.50;;;;;;;20.58;52.43;99704.36;;;;-58
2019/06/12 03:47:06;;;;;;;1.63;1.41;;;;;;;20.57;52.44;99715.98;;;;-52
2019/06/12 03:50:06;;;;;;;1.59;1.49;;;;;;;20.57;52.45;99711.78;;;;-52
2019/06/12 03:53:06;;;;;;;1.60;1.50;;;;;;;20.57;52.43;99703.66;;;;-52
2019/06/12 03:56:06;;;;;;;1.55;1.45;;;;;;;20.57;52.44;99710.27;;;;-52
2019/06/12 03:59:06;;;;;;;1.56;1.46;;;;;;;20.57;52.45;99711.61;;;;-52
2019/06/12 04:02:06;;;;;;;1.58;1.48;;;;;;;20.56;52.40;99708.50;;;;-52
2019/06/12 04:05:06;;;;;;;1.60;1.50;;;;;;;20.56;52.40;99700.69;;;;-52
2019/06/12 04:08:06;;;;;;;1.66;1.56;;;;;;;20.56;52.38;99685.86;;;;-52
2019/06/12 04:11:06;;;;;;;1.55;1.45;;;;;;;20.56;52.37;99670.98;;;;-51
2019/06/12 04:14:06;;;;;;;1.61;1.51;;;;;;;20.56;52.37;99662.10;;;;-49
2019/06/12 04:17:06;;;;;;;1.44;1.34;;;;;;;20.55;52.38;99652.84;;;;-49
2019/06/12 04:20:06;;;;;;;1.60;1.50;;;;;;;20.56;52.36;99643.38;;;;-49
2019/06/12 04:23:06;;;;;;;1.69;1.59;;;;;;;20.56;52.36;99645.06;;;;-49
2019/06/12 04:26:06;;;;;;;1.50;1.40;;;;;;;20.56;52.33;99659.32;;;;-50
2019/06/12 04:29:06;;;;;;;1.46;1.36;;;;;;;20.55;52.33;99667.44;;;;-49
2019/06/12 04:32:06;;;;;;;1.46;1.36;;;;;;;20.55;52.36;99668.05;;;;-49
2019/06/12 04:35:06;;;;;;;1.60;1.50;;;;;;;20.55;52.32;99675.39;;;;-49
2019/06/12 04:38:06;;;;;;;1.49;1.39;;;;;;;20.55;52.33;99685.16;;;;-49
2019/06/12 04:41:06;;;;;;;1.58;1.48;;;;;;;20.55;52.32;99673.31;;;;-50
2019/06/12 04:44:06;;;;;;;1.53;1.43;;;;;;;20.55;52.32;99678.58;;;;-49
2019/06/12 04:47:06;;;;;;;1.41;1.30;;;;;;;20.55;52.32;99687.41;;;;-49
2019/06/12 04:50:06;;;;;;;1.51;1.41;;;;;;;20.54;52.30;99691.41;;;;-49
2019/06/12 04:53:06;;;;;;;1.50;1.40;;;;;;;20.55;52.34;99692.84;;;;-49
2019/06/12 04:56:06;;;;;;;1.79;1.41;;;;;;;20.54;52.34;99684.96;;;;-49
2019/06/12 04:59:06;;;;;;;1.49;1.39;;;;;;;20.54;52.31;99686.23;;;;-49
2019/06/12 05:02:06;;;;;;;1.49;1.39;;;;;;;20.54;52.32;99682.67;;;;-51
2019/06/12 05:05:06;;;;;;;1.50;1.40;;;;;;;20.54;52.35;99677.55;;;;-52
2019/06/12 05:08:06;;;;;;;1.53;1.43;;;;;;;20.53;52.32;99677.98;;;;-52
2019/06/12 05:11:06;;;;;;;1.41;1.31;;;;;;;20.54;52.36;99679.49;;;;-51
2019/06/12 05:14:06;;;;;;;1.59;1.49;;;;;;;20.54;52.37;99664.63;;;;-52
2019/06/12 05:17:06;;;;;;;1.59;1.49;;;;;;;20.54;52.38;99678.55;;;;-52
2019/06/12 05:20:06;;;;;;;1.52;1.42;;;;;;;20.54;52.36;99684.62;;;;-52
2019/06/12 05:23:06;;;;;;;1.59;1.49;;;;;;;20.53;52.39;99674.80;;;;-52
2019/06/12 05:26:06;;;;;;;1.47;1.37;;;;;;;20.54;52.42;99661.71;;;;-52
2019/06/12 05:29:06;;;;;;;1.51;1.41;;;;;;;20.54;52.43;99665.16;;;;-52
2019/06/12 05:32:06;;;;;;;1.60;1.50;;;;;;;20.54;52.50;99665.94;;;;-52
2019/06/12 05:35:06;;;;;;;1.71;1.61;;;;;;;20.54;52.53;99683.11;;;;-52
2019/06/12 05:38:06;;;;;;;1.70;1.60;;;;;;;20.54;52.60;99703.64;;;;-52
2019/06/12 05:41:06;;;;;;;1.61;1.51;;;;;;;20.53;52.58;99706.84;;;;-52
2019/06/12 05:44:06;;;;;;;1.61;1.51;;;;;;;20.54;52.60;99709.45;;;;-52
2019/06/12 05:47:06;;;;;;;1.73;1.63;;;;;;;20.54;52.57;99716.39;;;;-52
2019/06/12 05:50:06;;;;;;;1.68;1.58;;;;;;;20.54;52.60;99720.42;;;;-52
2019/06/12 05:53:06;;;;;;;4.11;1.59;;;;;;;20.54;52.72;99727.53;;;;-55
2019/06/12 05:56:06;;;;;;;1.71;1.60;;;;;;;20.55;52.65;99718.37;;;;-52
2019/06/12 05:59:06;;;;;;;1.85;1.61;;;;;;;20.57;52.61;99721.68;;;;-47
2019/06/12 06:02:06;;;;;;;1.61;1.51;;;;;;;20.59;52.71;99725.77;;;;-50
2019/06/12 06:05:06;;;;;;;2.66;1.67;;;;;;;20.60;52.81;99725.28;;;;-51
2019/06/12 06:08:06;;;;;;;2.96;1.50;;;;;;;20.62;52.84;99724.61;;;;-49
2019/06/12 06:11:06;;;;;;;2.37;1.53;;;;;;;20.63;52.77;99723.09;;;;-49
2019/06/12 06:14:06;;;;;;;2.09;1.60;;;;;;;20.63;52.95;99725.88;;;;-50
2019/06/12 06:17:06;;;;;;;1.70;1.60;;;;;;;20.63;52.97;99742.55;;;;-50
2019/06/12 06:20:06;;;;;;;2.87;1.55;;;;;;;20.64;52.88;99760.30;;;;-50
2019/06/12 06:23:06;;;;;;;1.83;1.53;;;;;;;20.65;52.91;99749.25;;;;-50
2019/06/12 06:26:06;;;;;;;1.52;1.42;;;;;;;20.64;52.93;99725.13;;;;-49
2019/06/12 06:29:06;;;;;;;1.80;1.57;;;;;;;20.66;52.91;99723.84;;;;-50
2019/06/12 06:32:06;;;;;;;1.70;1.60;;;;;;;20.66;52.80;99726.36;;;;-49
2019/06/12 06:35:06;;;;;;;2.22;1.57;;;;;;;20.66;52.82;99719.41;;;;-49
2019/06/12 06:38:06;;;;;;;2.19;1.58;;;;;;;20.67;52.80;99724.64;;;;-49
2019/06/12 06:41:06;;;;;;;1.65;1.55;;;;;;;20.67;52.75;99733.87;;;;-49
2019/06/12 06:44:06;;;;;;;1.58;1.48;;;;;;;20.66;52.73;99731.00;;;;-50
2019/06/12 06:47:06;;;;;;;1.83;1.71;;;;;;;20.65;52.68;99733.48;;;;-49
2019/06/12 06:50:06;;;;;;;1.87;1.61;;;;;;;20.67;52.72;99740.59;;;;-49
2019/06/12 06:53:06;;;;;;;1.62;1.52;;;;;;;20.66;52.64;99745.16;;;;-49
2019/06/12 06:56:06;;;;;;;1.81;1.50;;;;;;;20.67;52.62;99757.86;;;;-49
2019/06/12 06:59:06;;;;;;;1.70;1.60;;;;;;;20.67;52.58;99753.50;;;;-49
2019/06/12 07:02:06;;;;;;;1.73;1.49;;;;;;;20.67;52.51;99751.22;;;;-49
2019/06/12 07:05:06;;;;;;;1.83;1.60;;;;;;;20.67;52.54;99757.09;;;;-50
2019/06/12 07:08:06;;;;;;;2.01;1.57;;;;;;;20.67;52.56;99766.48;;;;-49
2019/06/12 07:11:06;;;;;;;2.13;1.61;;;;;;;20.67;52.59;99776.66;;;;-49
2019/06/12 07:14:06;;;;;;;2.29;1.50;;;;;;;20.67;52.52;99784.88;;;;-49
2019/06/12 07:17:06;;;;;;;1.59;1.49;;;;;;;20.67;52.47;99791.76;;;;-49
2019/06/12 07:20:06;;;;;;;1.61;1.51;;;;;;;20.67;52.48;99798.37;;;;-49
2019/06/12 07:23:06;;;;;;;1.79;1.65;;;;;;;20.67;52.45;99794.27;;;;-49
2019/06/12 07:26:06;;;;;;;1.60;1.50;;;;;;;20.67;52.43;99800.72;;;;-50
2019/06/12 07:29:06;;;;;;;1.63;1.53;;;;;;;20.67;52.46;99806.69;;;;-50
2019/06/12 07:32:06;;;;;;;1.63;1.51;;;;;;;20.67;52.41;99818.44;;;;-49
2019/06/12 07:35:06;;;;;;;1.60;1.50;;;;;;;20.67;52.40;99830.01;;;;-49
2019/06/12 07:38:06;;;;;;;1.74;1.57;;;;;;;20.68;52.41;99835.81;;;;-49
2019/06/12 07:41:06;;;;;;;1.69;1.49;;;;;;;20.67;52.42;99847.13;;;;-50
2019/06/12 07:44:06;;;;;;;1.60;1.50;;;;;;;20.68;52.38;99860.64;;;;-50
2019/06/12 07:47:06;;;;;;;1.70;1.60;;;;;;;20.69;52.33;99869.06;;;;-50
2019/06/12 07:50:06;;;;;;;1.65;1.55;;;;;;;20.68;52.34;99868.87;;;;-49
2019/06/12 07:53:06;;;;;;;1.62;1.52;;;;;;;20.68;52.29;99887.99;;;;-49
2019/06/12 07:56:06;;;;;;;1.48;1.38;;;;;;;20.68;52.38;99907.45;;;;-49
2019/06/12 07:59:06;;;;;;;1.61;1.50;;;;;;;20.68;52.34;99911.48;;;;-51
2019/06/12 08:02:06;;;;;;;1.58;1.48;;;;;;;20.68;52.31;99915.01;;;;-49
2019/06/12 08:05:06;;;;;;;1.70;1.60;;;;;;;20.68;52.31;99913.67;;;;-50
2019/06/12 08:08:06;;;;;;;1.60;1.50;;;;;;;20.68;52.32;99923.56;;;;-49
2019/06/12 08:11:06;;;;;;;1.55;1.45;;;;;;;20.69;52.31;99944.06;;;;-50
2019/06/12 08:14:06;;;;;;;1.81;1.50;;;;;;;20.67;52.38;99961.38;;;;-50
2019/06/12 08:17:06;;;;;;;1.60;1.50;;;;;;;20.67;52.31;99968.60;;;;-49
2019/06/12 08:20:06;;;;;;;1.37;1.29;;;;;;;20.68;52.28;99971.48;;;;-49
2019/06/12 08:23:06;;;;;;;1.61;1.51;;;;;;;20.69;52.35;99972.77;;;;-49
2019/06/12 08:26:06;;;;;;;1.57;1.47;;;;;;;20.68;52.30;99975.58;;;;-50
2019/06/12 08:29:06;;;;;;;2.92;1.67;;;;;;;20.67;52.58;99993.84;;;;-49
2019/06/12 08:32:06;;;;;;;3.15;1.71;;;;;;;20.68;52.57;100016.69;;;;-49
2019/06/12 08:35:06;;;;;;;5.08;1.69;;;;;;;20.71;52.87;100036.59;;;;-49
2019/06/12 08:38:06;;;;;;;5.73;1.60;;;;;;;20.74;52.88;100045.81;;;;-49
2019/06/12 08:41:06;;;;;;;3.71;1.69;;;;;;;20.76;52.95;100047.49;;;;-48
2019/06/12 08:44:06;;;;;;;3.05;1.78;;;;;;;20.78;52.96;100042.86;;;;-49
2019/06/12 08:47:06;;;;;;;5.26;1.96;;;;;;;20.80;53.02;100036.17;;;;-49
2019/06/12 08:50:06;;;;;;;3.58;1.70;;;;;;;20.81;53.00;100031.91;;;;-49
2019/06/12 08:53:06;;;;;;;4.65;1.68;;;;;;;20.83;52.91;100017.52;;;;-53
2019/06/12 08:56:07;;;;;;;4.17;1.69;;;;;;;20.84;52.95;100036.37;;;;-47
2019/06/12 08:59:06;;;;;;;2.86;1.52;;;;;;;20.85;52.95;100030.47;;;;-51
2019/06/12 09:02:06;;;;;;;2.83;1.90;;;;;;;20.87;52.99;100025.45;;;;-52
2019/06/12 09:05:06;;;;;;;4.63;1.80;;;;;;;20.87;52.92;100030.92;;;;-51
2019/06/12 09:08:06;;;;;;;2.81;1.60;;;;;;;20.88;52.98;100044.45;;;;-51
2019/06/12 09:11:06;;;;;;;2.98;1.59;;;;;;;20.89;52.93;100053.45;;;;-50
2019/06/12 09:14:06;;;;;;;1.75;1.58;;;;;;;20.92;52.92;100063.78;;;;-52
2019/06/12 09:17:06;;;;;;;4.18;1.62;;;;;;;20.92;52.93;100044.48;;;;-47
2019/06/12 09:20:06;;;;;;;3.09;1.66;;;;;;;20.93;52.87;100037.56;;;;-52
2019/06/12 09:23:06;;;;;;;1.83;1.71;;;;;;;20.93;52.81;100017.48;;;;-51
2019/06/12 09:26:06;;;;;;;3.42;1.56;;;;;;;20.92;52.89;100031.66;;;;-54
2019/06/12 09:29:06;;;;;;;2.09;1.75;;;;;;;20.94;53.01;100037.43;;;;-52
2019/06/12 09:32:06;;;;;;;3.11;1.65;;;;;;;20.95;52.96;100028.23;;;;-51
2019/06/12 09:35:06;;;;;;;3.99;1.81;;;;;;;20.96;53.11;100020.54;;;;-51
2019/06/12 09:38:06;;;;;;;2.34;1.69;;;;;;;20.96;53.07;100031.38;;;;-52
2019/06/12 09:41:06;;;;;;;6.01;1.97;;;;;;;20.97;53.12;100029.73;;;;-51
2019/06/12 09:44:06;;;;;;;2.73;1.62;;;;;;;20.97;53.03;100029.56;;;;-51
2019/06/12 09:47:06;;;;;;;2.59;1.69;;;;;;;20.98;53.13;100035.30;;;;-52
2019/06/12 09:50:06;;;;;;;4.28;1.71;;;;;;;21.00;53.16;100053.40;;;;-51
2019/06/12 09:53:06;;;;;;;4.15;1.71;;;;;;;20.99;52.96;100042.29;;;;-51
2019/06/12 09:56:06;;;;;;;2.84;1.65;;;;;;;20.99;53.09;100024.09;;;;-51
2019/06/12 09:59:07;;;;;;;4.17;1.70;;;;;;;21.01;53.04;100009.55;;;;-51
2019/06/12 10:02:06;;;;;;;4.97;1.63;;;;;;;21.02;53.25;100038.19;;;;-52
2019/06/12 10:05:06;;;;;;;2.19;1.55;;;;;;;21.03;53.08;100052.16;;;;-53
2019/06/12 10:08:06;;;;;;;5.29;1.79;;;;;;;21.03;53.04;100049.73;;;;-51
2019/06/12 10:11:06;;;;;;;8.49;2.21;;;;;;;21.03;53.38;100041.47;;;;-57
2019/06/12 10:14:06;;;;;;;6.13;2.13;;;;;;;21.03;53.07;100033.85;;;;-52
2019/06/12 10:17:06;;;;;;;5.81;1.79;;;;;;;21.04;53.27;100021.62;;;;-52
2019/06/12 10:20:06;;;;;;;5.33;1.92;;;;;;;21.05;53.14;100018.70;;;;-51
2019/06/12 10:23:06;;;;;;;5.85;1.90;;;;;;;21.06;53.14;100015.75;;;;-51
2019/06/12 10:26:06;;;;;;;5.69;1.73;;;;;;;21.07;53.10;99999.70;;;;-52
2019/06/12 10:29:06;;;;;;;5.76;1.77;;;;;;;21.07;53.11;100013.09;;;;-51
2019/06/12 10:32:06;;;;;;;4.37;1.80;;;;;;;21.07;53.09;100042.10;;;;-53
2019/06/12 10:35:06;;;;;;;3.05;1.69;;;;;;;21.07;52.99;100057.25;;;;-52
2019/06/12 10:38:06;;;;;;;7.20;1.87;;;;;;;21.08;53.00;100069.44;;;;-51
2019/06/12 10:41:06;;;;;;;4.41;1.52;;;;;;;21.08;52.94;100088.67;;;;-52
2019/06/12 10:44:06;;;;;;;5.01;1.84;;;;;;;21.10;52.89;100097.00;;;;-53
2019/06/12 10:47:06;;;;;;;4.11;1.70;;;;;;;21.09;52.95;100085.89;;;;-53
2019/06/12 10:50:06;;;;;;;5.89;1.98;;;;;;;21.09;52.95;100082.97;;;;-53
2019/06/12 10:53:06;;;;;;;5.11;1.68;;;;;;;21.10;52.88;100100.20;;;;-52
2019/06/12 10:56:06;;;;;;;7.65;1.71;;;;;;;21.09;52.89;100107.34;;;;-52
2019/06/12 10:59:06;;;;;;;5.33;1.81;;;;;;;21.08;52.92;100113.73;;;;-52
2019/06/12 11:02:06;;;;;;;4.74;1.68;;;;;;;21.06;52.96;100098.22;;;;-52
2019/06/12 11:05:06;;;;;;;3.87;1.79;;;;;;;21.06;52.90;100102.69;;;;-52
2019/06/12 11:08:06;;;;;;;2.77;1.69;;;;;;;21.05;52.90;100103.39;;;;-52
2019/06/12 11:11:06;;;;;;;2.95;1.79;;;;;;;21.04;52.91;100102.15;;;;-52
2019/06/12 11:14:06;;;;;;;3.43;1.76;;;;;;;21.03;52.90;100106.22;;;;-52
2019/06/12 11:17:06;;;;;;;4.59;1.63;;;;;;;21.02;52.82;100114.00;;;;-52
2019/06/12 11:20:06;;;;;;;3.21;1.61;;;;;;;21.02;52.79;100124.25;;;;-52
2019/06/12 11:23:06;;;;;;;2.93;1.59;;;;;;;21.00;52.81;100122.23;;;;-51
2019/06/12 11:26:06;;;;;;;6.73;1.65;;;;;;;21.00;53.03;100118.37;;;;-51
2019/06/12 11:29:06;;;;;;;4.44;1.65;;;;;;;21.03;53.14;100123.10;;;;-54
2019/06/12 11:32:06;;;;;;;2.87;1.60;;;;;;;21.05;53.09;100122.36;;;;-54
2019/06/12 11:35:06;;;;;;;3.01;1.77;;;;;;;21.05;53.14;100117.27;;;;-54
2019/06/12 11:38:06;;;;;;;4.81;1.73;;;;;;;21.06;53.08;100125.52;;;;-52
2019/06/12 11:41:06;;;;;;;2.71;1.67;;;;;;;21.05;53.10;100117.86;;;;-53
2019/06/12 11:44:06;;;;;;;3.16;1.57;;;;;;;21.06;53.02;100117.36;;;;-53
2019/06/12 11:47:06;;;;;;;2.73;1.60;;;;;;;21.07;53.01;100122.97;;;;-54
2019/06/12 11:50:06;;;;;;;4.42;1.61;;;;;;;21.06;53.15;100116.82;;;;-51
2019/06/12 11:53:06;;;;;;;3.23;1.51;;;;;;;21.07;53.15;100116.05;;;;-52
2019/06/12 11:56:06;;;;;;;2.64;1.50;;;;;;;21.09;53.08;100115.64;;;;-52
2019/06/12 11:59:06;;;;;;;2.87;1.69;;;;;;;21.10;53.05;100106.84;;;;-52
2019/06/12 12:02:06;;;;;;;4.12;1.58;;;;;;;21.10;53.16;100113.83;;;;-53
2019/06/12 12:05:06;;;;;;;4.31;1.76;;;;;;;21.08;53.12;100106.88;;;;-52
2019/06/12 12:08:06;;;;;;;5.15;1.70;;;;;;;21.07;53.01;100108.59;;;;-52
2019/06/12 12:11:06;;;;;;;3.17;1.71;;;;;;;21.07;52.99;100108.36;;;;-52
2019/06/12 12:14:06;;;;;;;2.07;1.61;;;;;;;21.06;52.94;100112.59;;;;-53
2019/06/12 12:17:06;;;;;;;3.37;1.61;;;;;;;21.05;52.90;100112.80;;;;-52
2019/06/12 12:20:06;;;;;;;4.05;1.68;;;;;;;21.05;52.86;100115.98;;;;-52
2019/06/12 12:23:06;;;;;;;3.73;1.57;;;;;;;21.05;52.89;100112.39;;;;-52
2019/06/12 12:26:06;;;;;;;2.17;1.40;;;;;;;21.04;52.81;100117.73;;;;-52
2019/06/12 12:29:06;;;;;;;7.27;2.01;;;;;;;21.03;52.91;100112.16;;;;-51
2019/06/12 12:32:06;;;;;;;4.33;1.62;;;;;;;21.04;52.81;100111.28;;;;-52
2019/06/12 12:35:06;;;;;;;2.71;1.46;;;;;;;21.05;52.84;100113.46;;;;-51
2019/06/12 12:38:06;;;;;;;3.23;1.64;;;;;;;21.06;52.90;100111.65;;;;-53
2019/06/12 12:41:06;;;;;;;3.02;1.53;;;;;;;21.05;52.88;100114.91;;;;-53
2019/06/12 12:44:06;;;;;;;2.86;1.61;;;;;;;21.06;52.87;100114.94;;;;-53
2019/06/12 12:47:06;;;;;;;7.67;1.73;;;;;;;21.06;53.07;100116.55;;;;-52
2019/06/12 12:50:06;;;;;;;3.38;1.61;;;;;;;21.07;53.02;100115.04;;;;-52
2019/06/12 12:53:06;;;;;;;2.17;1.59;;;;;;;21.09;53.03;100117.39;;;;-52
2019/06/12 12:56:06;;;;;;;5.60;1.70;;;;;;;21.09;53.04;100120.11;;;;-52
2019/06/12 12:59:06;;;;;;;4.43;1.49;;;;;;;21.10;53.04;100127.83;;;;-52
2019/06/12 13:02:06;;;;;;;3.26;1.49;;;;;;;21.10;53.05;100131.36;;;;-52
2019/06/12 13:05:06;;;;;;;4.71;1.84;;;;;;;21.10;52.85;100130.72;;;;-51
2019/06/12 13:08:06;;;;;;;3.41;1.68;;;;;;;21.10;52.92;100131.19;;;;-50
2019/06/12 13:11:06;;;;;;;3.60;1.54;;;;;;;21.09;52.96;100131.42;;;;-51
2019/06/12 13:14:06;;;;;;;4.78;1.55;;;;;;;21.10;52.91;100132.27;;;;-51
2019/06/12 13:17:06;;;;;;;2.73;1.69;;;;;;;21.10;52.92;100140.49;;;;-51
2019/06/12 13:20:06;;;;;;;3.12;1.56;;;;;;;21.09;52.90;100139.55;;;;-51
2019/06/12 13:23:06;;;;;;;4.65;1.79;;;;;;;21.09;52.83;100139.55;;;;-51
2019/06/12 13:26:06;;;;;;;8.11;1.87;;;;;;;21.09;52.97;100139.05;;;;-51
2019/06/12 13:29:06;;;;;;;3.75;1.77;;;;;;;21.09;52.93;100143.78;;;;-51
2019/06/12 13:32:06;;;;;;;3.88;1.60;;;;;;;21.11;53.03;100149.63;;;;-52
2019/06/12 13:35:06;;;;;;;4.46;1.69;;;;;;;21.13;53.05;100145.63;;;;-52
2019/06/12 13:38:06;;;;;;;8.27;1.84;;;;;;;21.13;53.09;100148.59;;;;-52
2019/06/12 13:41:06;;;;;;;3.73;1.57;;;;;;;21.14;53.10;100147.44;;;;-52
2019/06/12 13:44:06;;;;;;;2.19;1.60;;;;;;;21.16;53.11;100152.78;;;;-52
2019/06/12 13:47:06;;;;;;;3.33;1.67;;;;;;;21.15;53.10;100148.14;;;;-52
2019/06/12 13:50:06;;;;;;;5.71;1.55;;;;;;;21.17;53.12;100145.92;;;;-51
2019/06/12 13:53:06;;;;;;;2.47;1.50;;;;;;;21.17;53.01;100143.74;;;;-50
2019/06/12 13:56:06;;;;;;;15.76;2.11;;;;;;;21.16;53.13;100150.97;;;;-52
2019/06/12 13:59:06;;;;;;;3.98;1.66;;;;;;;21.17;53.11;100151.41;;;;-51
2019/06/12 14:02:06;;;;;;;5.07;1.59;;;;;;;21.16;53.18;100144.48;;;;-51
2019/06/12 14:05:06;;;;;;;5.19;1.53;;;;;;;21.17;53.21;100148.65;;;;-53
2019/06/12 14:08:06;;;;;;;2.95;1.70;;;;;;;21.18;53.20;100139.68;;;;-53
2019/06/12 14:11:06;;;;;;;2.47;1.52;;;;;;;21.18;53.27;100138.84;;;;-52
2019/06/12 14:14:06;;;;;;;3.67;1.60;;;;;;;21.19;53.22;100144.41;;;;-52
2019/06/12 14:17:06;;;;;;;3.80;1.60;;;;;;;21.20;53.35;100141.42;;;;-52
2019/06/12 14:20:06;;;;;;;2.99;1.50;;;;;;;21.22;53.42;100142.50;;;;-50
2019/06/12 14:23:06;;;;;;;4.16;1.60;;;;;;;21.22;53.31;100137.02;;;;-50
2019/06/12 14:26:06;;;;;;;2.95;1.48;;;;;;;21.23;53.34;100131.67;;;;-52
2019/06/12 14:29:06;;;;;;;2.53;1.47;;;;;;;21.23;53.47;100135.98;;;;-50
2019/06/12 14:32:06;;;;;;;4.23;1.55;;;;;;;21.24;53.37;100132.72;;;;-51
2019/06/12 14:35:06;;;;;;;2.87;1.59;;;;;;;21.24;53.36;100127.78;;;;-52
2019/06/12 14:38:06;;;;;;;4.72;1.55;;;;;;;21.24;53.40;100127.52;;;;-52
2019/06/12 14:41:06;;;;;;;2.65;1.54;;;;;;;21.25;53.43;100127.48;;;;-52
2019/06/12 14:44:06;;;;;;;2.91;1.47;;;;;;;21.25;53.38;100130.16;;;;-53
2019/06/12 14:47:06;;;;;;;1.61;1.48;;;;;;;21.26;53.29;100127.67;;;;-52
2019/06/12 14:50:06;;;;;;;4.77;1.65;;;;;;;21.26;53.25;100128.18;;;;-52
2019/06/12 14:53:06;;;;;;;3.25;1.28;;;;;;;21.25;53.35;100130.56;;;;-51
2019/06/12 14:56:06;;;;;;;2.84;1.47;;;;;;;21.24;53.27;100133.16;;;;-51
2019/06/12 14:59:06;;;;;;;5.02;1.65;;;;;;;21.23;53.34;100129.59;;;;-52
2019/06/12 15:02:06;;;;;;;3.50;1.50;;;;;;;21.24;53.39;100130.88;;;;-52
2019/06/12 15:05:06;;;;;;;3.27;1.47;;;;;;;21.24;53.31;100122.98;;;;-53
2019/06/12 15:08:06;;;;;;;3.51;1.59;;;;;;;21.24;53.28;100126.77;;;;-52
2019/06/12 15:11:06;;;;;;;2.49;1.46;;;;;;;21.25;53.24;100125.86;;;;-51
2019/06/12 15:14:06;;;;;;;3.05;1.52;;;;;;;21.25;53.36;100122.77;;;;-52
2019/06/12 15:17:06;;;;;;;1.85;1.41;;;;;;;21.26;53.35;100118.67;;;;-52
2019/06/12 15:20:06;;;;;;;1.56;1.29;;;;;;;21.25;53.35;100115.55;;;;-52
2019/06/12 15:23:06;;;;;;;3.24;1.37;;;;;;;21.27;53.44;100117.36;;;;-52
2019/06/12 15:26:06;;;;;;;3.77;1.51;;;;;;;21.28;53.33;100116.12;;;;-53
2019/06/12 15:29:06;;;;;;;4.03;1.61;;;;;;;21.28;53.37;100116.89;;;;-53
2019/06/12 15:32:06;;;;;;;2.71;1.45;;;;;;;21.27;53.38;100114.00;;;;-53
2019/06/12 15:35:06;;;;;;;3.17;1.47;;;;;;;21.28;53.34;100114.38;;;;-55
2019/06/12 15:38:06;;;;;;;3.07;1.41;;;;;;;21.29;53.45;100116.48;;;;-52
2019/06/12 15:41:06;;;;;;;2.30;1.26;;;;;;;21.30;53.29;100117.80;;;;-51
2019/06/12 15:44:06;;;;;;;2.45;1.40;;;;;;;21.32;53.43;100110.63;;;;-52
2019/06/12 15:47:06;;;;;;;2.91;1.39;;;;;;;21.30;53.14;100114.09;;;;-52
2019/06/12 15:50:06;;;;;;;2.85;1.52;;;;;;;21.30;53.21;100115.67;;;;-52
2019/06/12 15:53:06;;;;;;;2.46;1.51;;;;;;;21.29;53.13;100110.20;;;;-52
2019/06/12 15:56:06;;;;;;;2.51;1.60;;;;;;;21.29;53.15;100114.97;;;;-52
2019/06/12 15:59:06;;;;;;;4.64;1.39;;;;;;;21.27;53.14;100106.17;;;;-52
2019/06/12 16:02:06;;;;;;;3.75;1.49;;;;;;;21.27;53.12;100102.25;;;;-51
2019/06/12 16:05:06;;;;;;;4.09;1.44;;;;;;;21.25;53.14;100103.80;;;;-52
2019/06/12 16:08:06;;;;;;;2.09;1.50;;;;;;;21.25;53.14;100100.34;;;;-51
2019/06/12 16:11:06;;;;;;;3.26;1.57;;;;;;;21.23;53.07;100097.59;;;;-52
2019/06/12 16:14:06;;;;;;;2.19;1.37;;;;;;;21.23;53.08;100096.01;;;;-51
2019/06/12 16:17:06;;;;;;;2.62;1.37;;;;;;;21.23;52.99;100096.34;;;;-52
2019/06/12 16:20:06;;;;;;;4.53;1.83;;;;;;;21.22;53.20;100097.15;;;;-52
2019/06/12 16:23:06;;;;;;;4.28;2.00;;;;;;;21.25;53.13;100092.27;;;;-53
2019/06/12 16:26:06;;;;;;;5.31;1.81;;;;;;;21.25;53.00;100094.56;;;;-52
2019/06/12 16:29:06;;;;;;;3.82;1.91;;;;;;;21.25;53.03;100097.65;;;;-53
2019/06/12 16:32:06;;;;;;;6.49;2.63;;;;;;;21.26;53.18;100100.30;;;;-52
2019/06/12 16:35:06;;;;;;;7.58;2.78;;;;;;;21.27;53.16;100097.87;;;;-53
2019/06/12 16:38:06;;;;;;;7.12;2.76;;;;;;;21.28;53.19;100097.47;;;;-51
2019/06/12 16:41:06;;;;;;;6.63;2.83;;;;;;;21.28;53.22;100089.78;;;;-52
2019/06/12 16:44:06;;;;;;;8.04;2.91;;;;;;;21.28;53.28;100089.01;;;;-53
2019/06/12 16:47:06;;;;;;;5.05;2.84;;;;;;;21.28;53.27;100087.73;;;;-54
2019/06/12 16:50:06;;;;;;;5.71;2.72;;;;;;;21.30;53.22;100094.28;;;;-52